Latest Weather Observations for Fitzroy Crossing

IDW60801

Issued at 9:43 am WST Tuesday 22 September 2020 (issued every 10 minutes, with the page automatically refreshed every 10 minutes)

About weather observations | Map of weather stations | Latest weather observations for WA | Other Formats
Station Details ID: 003093 Name: FITZROY CROSSING AERO Lat: -18.18 Lon: 125.56 Height: 114.5 m
Data from the previous 72 hours. | See also: Recent months at Fitzroy Crossing
Date/Time
WST
Temp
°C
App
Temp
°C
Dew
Point
°C
Rel
Hum
%
Delta-T
°C
Wind Press
QNH
hPa
Press
MSL
hPa
Rain since
9am
mm
Dir  Spd
km/h
Gust
km/h
Spd
kts
Gust
kts
22/09:30am 33.1 25.1 -5.5 8 17.3 ESE 28 37 15 20 1014.6 1013.9 0.0
22/09:00am 32.3 24.8 -4.6 9 16.6 ESE 26 37 14 20 1014.8 1014.1 0.0
22/08:30am 32.1 25.0 -4.7 9 16.5 ESE 24 37 13 20 1015.0 1014.3 0.0
22/08:00am 31.3 25.0 -3.9 10 15.9 ESE 20 32 11 17 1015.1 1014.4 0.0
22/07:30am 28.9 23.6 -0.3 15 13.8 SE 17 20 9 11 1014.8 1014.1 0.0
22/07:00am 27.2 22.8 0.1 17 12.8 SE 13 17 7 9 1014.6 1013.9 0.0
22/06:30am 24.8 21.2 0.3 20 11.4 SSE 9 13 5 7 1013.7 1013.1 0.0
22/06:00am 21.7 18.1 0.8 25 9.6 S 9 11 5 6 1013.2 1012.6 0.0
22/05:30am 20.4 17.3 0.3 26 9.0 SE 6 7 3 4 1012.9 1012.3 0.0
22/05:00am 20.9 17.1 -0.4 24 9.5 SE 9 9 5 5 1012.5 1011.9 0.0
22/04:30am 21.6 17.4 -1.0 22 10.0 S 11 13 6 7 1012.1 1011.4 0.0
22/04:00am 20.9 19.0 0.7 26 9.2 CALM 0 0 0 0 1011.7 1011.0 0.0
22/03:30am 21.2 19.4 1.5 27 9.1 CALM 0 0 0 0 1011.6 1010.9 0.0
22/03:00am 22.0 20.0 -0.1 23 10.0 CALM 0 0 0 0 1011.6 1010.9 0.0
22/02:30am 23.0 19.6 -1.8 19 10.9 SE 6 7 3 4 1011.6 1010.9 0.0
22/02:00am 23.1 19.2 -1.8 19 11.0 S 9 11 5 6 1011.5 1010.8 0.0
22/01:30am 23.9 19.6 -1.8 18 11.4 S 11 13 6 7 1011.3 1010.6 0.0
22/01:00am 24.0 19.7 -1.8 18 11.5 S 11 15 6 8 1011.1 1010.4 0.0
22/12:30am 24.3 20.3 -2.3 17 11.7 S 9 11 5 6 1011.2 1010.5 0.0
22/12:00am 25.3 20.8 -3.2 15 12.5 S 11 13 6 7 1011.2 1010.5 0.0
 
Date/Time
WST
Temp
°C
App
Temp
°C
Dew
Point
°C
Rel
Hum
%
Delta-T
°C
Wind Press
QNH
hPa
Press
MSL
hPa
Rain since
9am
mm
Dir  Spd
km/h
Gust
km/h
Spd
kts
Gust
kts
21/11:30pm 26.5 20.9 -3.1 14 13.1 SSE 17 22 9 12 1011.2 1010.5 0.0
21/11:00pm 27.1 21.5 -2.7 14 13.3 S 17 22 9 12 1011.3 1010.6 0.0
21/10:30pm 27.7 22.2 -2.2 14 13.6 SSE 17 28 9 15 1011.4 1010.7 0.0
21/10:00pm 27.8 22.2 -0.3 16 13.2 S 19 26 10 14 1011.6 1010.9 0.0
21/09:30pm 27.9 23.7 3.6 21 12.2 S 15 20 8 11 1011.6 1010.9 0.0
21/09:00pm 28.7 24.4 3.5 20 12.7 S 15 20 8 11 1011.6 1010.9 0.0
21/08:30pm 29.2 24.5 3.2 19 13.1 S 17 20 9 11 1011.6 1010.9 0.0
21/08:00pm 29.6 25.5 4.3 20 13.0 S 15 19 8 10 1011.5 1010.8 0.0
21/07:30pm 29.8 26.0 3.7 19 13.3 S 13 17 7 9 1011.4 1010.7 0.0
21/07:00pm 30.7 26.1 3.7 18 13.9 S 17 22 9 12 1011.2 1010.5 0.0
21/06:30pm 31.3 26.5 2.5 16 14.5 S 17 20 9 11 1010.9 1010.2 0.0
21/06:00pm 31.8 26.9 2.0 15 15.0 S 17 20 9 11 1010.5 1009.8 0.0
21/05:30pm 32.8 27.9 1.8 14 15.6 S 17 20 9 11 1010.2 1009.5 0.0
21/05:00pm 34.2 29.3 1.9 13 16.5 S 17 26 9 14 1010.1 1009.4 0.0
21/04:30pm 35.0 29.1 1.4 12 17.1 S 22 30 12 16 1009.8 1009.1 0.0
21/04:00pm 35.5 30.0 0.6 11 17.6 SSE 19 26 10 14 1009.7 1009.0 0.0
21/03:30pm 36.0 30.5 0.9 11 17.8 SSE 19 28 10 15 1009.6 1008.9 0.0
21/03:00pm 36.6 30.5 0.1 10 18.3 S 22 30 12 16 1009.5 1008.8 0.0
21/02:30pm 36.6 29.9 -1.4 9 18.6 S 24 33 13 18 1009.5 1008.8 0.0
21/02:00pm 37.5 32.2 -0.7 9 19.1 S 17 28 9 15 1009.5 1008.8 0.0
21/01:30pm 37.2 32.6 -0.9 9 18.9 SSE 13 26 7 14 1009.7 1009.0 0.0
21/01:00pm 36.9 31.5 -1.1 9 18.8 SE 17 26 9 14 1010.1 1009.4 0.0
21/12:30pm 36.5 31.1 -1.4 9 18.6 SSE 17 24 9 13 1010.6 1009.9 0.0
21/12:00pm 36.0 30.2 -1.8 9 18.4 SE 19 30 10 16 1011.1 1010.4 0.0
21/11:30am 35.7 29.6 -2.0 9 18.2 SE 20 32 11 17 1011.9 1011.2 0.0
21/11:00am 35.1 29.0 -2.5 9 17.9 SSE 20 39 11 21 1012.4 1011.8 0.0
21/10:30am 34.2 28.2 -1.7 10 17.2 SE 20 35 11 19 1013.0 1012.4 0.0
21/10:00am 33.1 26.8 -1.3 11 16.5 SSE 22 32 12 17 1013.4 1012.8 0.0
21/09:30am 32.0 25.7 -0.9 12 15.8 SE 22 33 12 18 1013.7 1013.1 0.0
21/09:00am 31.4 25.7 0.7 14 15.0 SSE 20 30 11 16 1014.0 1013.3 0.0
21/08:30am 30.4 24.9 1.8 16 14.2 SSE 20 32 11 17 1014.2 1013.5 0.0
21/08:00am 29.2 23.3 1.7 17 13.5 SSE 22 30 12 16 1014.1 1013.4 0.0
21/07:30am 28.6 23.6 3.5 20 12.7 SSE 19 26 10 14 1013.7 1013.1 0.0
21/07:00am 27.6 22.9 5.2 24 11.6 S 19 24 10 13 1013.3 1012.7 0.0
21/06:30am 25.7 22.7 7.8 32 9.6 SSW 13 17 7 9 1012.8 1012.2 0.0
21/06:00am 23.6 21.2 8.8 39 8.0 SSW 11 11 6 6 1012.4 1011.8 0.0
21/05:30am 23.7 21.3 8.6 38 8.1 SSW 11 13 6 7 1012.0 1011.3 0.0
21/05:00am 24.6 21.8 8.5 36 8.7 SSW 13 17 7 9 1011.5 1010.8 0.0
21/04:30am 25.0 21.9 8.9 36 8.8 SW 15 19 8 10 1010.8 1010.1 0.0
21/04:00am 25.7 22.5 9.9 37 8.8 SW 17 24 9 13 1010.4 1009.7 0.0
21/03:30am 26.0 23.7 11.7 41 8.2 WSW 15 22 8 12 1010.1 1009.4 0.0
21/03:00am 25.6 24.4 11.7 42 8.0 W 9 13 5 7 1009.9 1009.2 0.0
21/02:30am 26.1 25.1 12.2 42 8.0 W 9 13 5 7 1009.7 1009.0 0.0
21/02:00am 25.2 25.3 11.4 42 7.9 WNW 2 6 1 3 1009.7 1009.0 0.0
21/01:30am 25.4 24.5 10.8 40 8.2 N 6 7 3 4 1009.9 1009.2 0.0
21/01:00am 27.0 25.4 11.5 38 8.9 W 11 11 6 6 1010.0 1009.3 0.0
21/12:30am 27.9 25.4 11.0 35 9.7 WSW 15 19 8 10 1010.2 1009.5 0.0
21/12:00am 28.7 25.6 10.4 32 10.4 WSW 17 20 9 11 1010.4 1009.7 0.0
 
Date/Time
WST
Temp
°C
App
Temp
°C
Dew
Point
°C
Rel
Hum
%
Delta-T
°C
Wind Press
QNH
hPa
Press
MSL
hPa
Rain since
9am
mm
Dir  Spd
km/h
Gust
km/h
Spd
kts
Gust
kts
20/11:30pm 29.1 25.7 9.3 29 11.1 WSW 17 20 9 11 1010.7 1010.0 0.0
20/11:00pm 29.3 25.8 7.2 25 12.0 WSW 15 17 8 9 1010.7 1010.0 0.0
20/10:30pm 28.3 25.0 6.4 25 11.6 WNW 13 20 7 11 1010.9 1010.2 0.0
20/10:00pm 28.5 25.6 6.6 25 11.7 SSW 11 11 6 6 1010.7 1010.0 0.0
20/09:30pm 29.5 26.3 6.8 24 12.2 SW 13 20 7 11 1010.8 1010.1 0.0
20/09:00pm 29.1 26.6 6.5 24 12.1 W 9 11 5 6 1010.7 1010.0 0.0
20/08:30pm 29.6 27.4 6.3 23 12.4 WNW 7 11 4 6 1010.8 1010.1 0.0
20/08:00pm 30.0 27.9 6.6 23 12.6 WSW 7 9 4 5 1010.6 1009.9 0.0
20/07:30pm 30.6 28.5 6.5 22 13.0 WSW 7 7 4 4 1010.3 1009.6 0.0
20/07:00pm 31.4 28.9 6.5 21 13.5 SW 9 11 5 6 1009.9 1009.2 0.0
20/06:30pm 32.0 29.3 5.5 19 14.1 WSW 9 11 5 6 1009.6 1008.9 0.0
20/06:00pm 33.8 30.5 6.2 18 15.0 WSW 13 15 7 8 1009.2 1008.5 0.0
20/05:30pm 35.7 32.1 5.1 15 16.5 W 13 17 7 9 1008.8 1008.1 0.0
20/05:00pm 37.3 33.2 4.3 13 17.8 W 15 19 8 10 1008.6 1007.9 0.0
20/04:30pm 38.1 33.9 3.8 12 18.4 SW 15 22 8 12 1008.3 1007.6 0.0
20/04:00pm 38.4 35.0 4.0 12 18.6 WNW 11 20 6 11 1008.1 1007.4 0.0
20/03:30pm 38.5 35.3 2.8 11 18.9 WSW 9 19 5 10 1008.1 1007.4 0.0
20/03:00pm 39.1 34.4 3.3 11 19.2 WSW 17 24 9 13 1008.1 1007.4 0.0
20/02:30pm 38.7 35.7 4.2 12 18.7 NW 9 20 5 11 1008.2 1007.5 0.0
20/02:00pm 38.7 36.3 4.2 12 18.7 WSW 6 13 3 7 1008.4 1007.7 0.0
20/01:30pm 38.4 34.6 4.0 12 18.5 W 13 20 7 11 1008.8 1008.1 0.0
20/01:00pm 37.8 34.4 5.7 14 17.7 SW 13 26 7 14 1009.2 1008.5 0.0
20/12:30pm 37.4 35.2 5.4 14 17.5 S 6 13 3 7 1009.7 1009.0 0.0
20/12:00pm 37.1 32.8 5.2 14 17.4 SW 17 20 9 11 1010.5 1009.8 0.0
20/11:30am 36.5 33.2 4.7 14 17.1 SSE 11 20 6 11 1011.1 1010.4 0.0
20/11:00am 35.8 32.4 4.2 14 16.9 SSW 11 17 6 9 1011.8 1011.1 0.0
20/10:30am 35.2 32.5 5.6 16 16.1 SE 9 13 5 7 1012.5 1011.9 0.0
20/10:00am 33.1 30.9 7.9 21 14.0 S 9 17 5 9 1012.9 1012.3 0.0
20/09:30am 32.6 30.4 9.4 24 13.2 SSW 11 17 6 9 1013.3 1012.7 0.0
20/09:00am 31.6 28.7 8.0 23 13.1 SSE 13 17 7 9 1013.6 1013.0 0.0
20/08:30am 30.1 27.2 9.6 28 11.6 SSE 15 22 8 12 1013.9 1013.2 0.0
20/08:00am 29.2 28.6 11.7 34 10.2 SW 6 9 3 5 1013.9 1013.2 0.0
20/07:30am 27.6 28.2 13.2 41 8.5 NW 2 6 1 3 1013.7 1013.1 0.0
20/07:00am 26.1 27.0 13.9 47 7.3 N 2 6 1 3 1013.6 1013.0 0.0
20/06:30am 24.8 24.8 13.7 50 6.5 N 6 7 3 4 1013.1 1012.5 0.0
20/06:00am 22.9 22.7 13.1 54 5.7 NNE 6 7 3 4 1012.7 1012.1 0.0
20/05:30am 22.8 22.1 13.3 55 5.5 N 9 11 5 6 1012.4 1011.8 0.0
20/05:00am 22.7 22.0 13.2 55 5.5 N 9 9 5 5 1011.9 1011.2 0.0
20/04:30am 22.3 21.8 12.8 55 5.5 N 7 7 4 4 1011.5 1010.8 0.0
20/04:00am 22.4 21.8 12.4 53 5.7 WNW 7 11 4 6 1011.1 1010.4 0.0
20/03:30am 22.9 21.5 12.2 51 6.1 WNW 11 11 6 6 1010.9 1010.2 0.0
20/03:00am 23.4 22.3 12.1 49 6.4 NW 9 9 5 5 1010.9 1010.2 0.0
20/02:30am 24.6 24.0 12.2 46 7.1 W 7 9 4 5 1010.9 1010.2 0.0
20/02:00am 25.5 23.8 12.4 44 7.6 WSW 13 20 7 11 1010.9 1010.2 0.0
20/01:30am 26.5 23.6 12.2 41 8.3 WSW 19 26 10 14 1011.1 1010.4 0.0
20/01:00am 27.0 23.8 11.9 39 8.7 W 20 26 11 14 1011.3 1010.6 0.0
20/12:30am 27.3 24.1 11.3 37 9.2 W 19 26 10 14 1011.4 1010.7 0.0
20/12:00am 28.1 23.9 11.2 35 9.7 W 24 30 13 16 1011.5 1010.8 0.0
 
Date/Time
WST
Temp
°C
App
Temp
°C
Dew
Point
°C
Rel
Hum
%
Delta-T
°C
Wind Press
QNH
hPa
Press
MSL
hPa
Rain since
9am
mm
Dir  Spd
km/h
Gust
km/h
Spd
kts
Gust
kts
19/11:30pm 28.7 24.7 8.9 29 11.0 W 20 26 11 14 1011.5 1010.8 0.0
19/11:00pm 28.6 25.2 7.8 27 11.3 W 15 24 8 13 1011.7 1011.0 0.0
19/10:30pm 26.6 24.3 5.0 25 11.1 W 6 9 3 5 1011.6 1010.9 0.0
19/10:00pm 27.1 23.7 4.2 23 11.6 W 11 13 6 7 1011.6 1010.9 0.0
19/09:30pm 27.6 25.0 4.0 22 12.0 SW 7 9 4 5 1011.5 1010.8 0.0
19/09:00pm 28.3 25.6 3.9 21 12.4 SW 7 9 4 5 1011.3 1010.6 0.0
19/08:30pm 28.3 25.3 3.9 21 12.4 SW 9 11 5 6 1011.2 1010.5 0.0
19/08:00pm 28.5 25.0 3.4 20 12.7 WSW 11 13 6 7 1011.0 1010.3 0.0
19/07:30pm 28.7 24.7 2.8 19 12.9 WSW 13 13 7 7 1010.7 1010.0 0.0
19/07:00pm 29.6 25.6 2.8 18 13.5 WSW 13 15 7 8 1010.4 1009.7 0.0
19/06:30pm 30.9 26.8 2.2 16 14.4 WSW 13 17 7 9 1010.0 1009.3 0.0
19/06:00pm 32.0 28.3 2.1 15 15.1 WSW 11 13 6 7 1009.6 1008.9 0.0
19/05:30pm 34.6 30.9 2.2 13 16.6 W 11 17 6 9 1009.2 1008.5 0.0
19/05:00pm 36.4 30.8 1.2 11 18.0 W 20 24 11 13 1008.9 1008.2 0.0
19/04:30pm 37.5 33.0 2.1 11 18.4 W 15 22 8 12 1008.8 1008.1 0.0
19/04:00pm 37.7 32.8 2.2 11 18.6 WSW 17 28 9 15 1008.8 1008.1 0.0
19/03:30pm 38.1 32.9 2.5 11 18.7 WNW 19 28 10 15 1008.8 1008.1 0.0
19/03:00pm 38.3 34.4 1.3 10 19.1 W 11 22 6 12 1008.9 1008.2 0.0
19/02:30pm 38.2 33.6 1.3 10 19.1 W 15 24 8 13 1009.1 1008.4 0.0
19/02:00pm 37.7 33.6 2.2 11 18.6 NNW 13 26 7 14 1009.5 1008.8 0.0
19/01:30pm 38.2 33.2 1.3 10 19.1 WSW 17 24 9 13 1009.9 1009.2 0.0
19/01:00pm 37.4 33.1 0.7 10 18.7 WNW 13 24 7 13 1010.4 1009.7 0.0
19/12:30pm 36.9 33.5 1.6 11 18.2 SSE 9 17 5 9 1011.0 1010.3 0.0
19/12:00pm 35.9 32.9 2.1 12 17.5 SE 7 17 4 9 1011.6 1010.9 0.0
19/11:30am 35.2 31.7 1.5 12 17.2 S 9 15 5 8 1012.2 1011.5 0.0
19/11:00am 35.5 32.8 2.9 13 17.0 SE 6 17 3 9 1012.8 1012.2 0.0
19/10:30am 34.2 31.2 3.9 15 15.9 ENE 9 15 5 8 1013.3 1012.7 0.0
19/10:00am 33.7 31.0 3.5 15 15.7 SE 7 11 4 6 1013.6 1013.0 0.0

Other formats

Comma delimited format used in spreadsheet applications
http://www.bom.gov.au/fwo/IDW60801/IDW60801.94206.axf

JavaScript Object Notation format (JSON) in row-major order
http://www.bom.gov.au/fwo/IDW60801/IDW60801.94206.json

Data quality

Most of these data are generated automatically and are frequently updated. Quality checks on data are not normally performed. It is possible for incorrect values to appear. Refer to information at About Latest Weather Observations and please check the disclaimer before using these data.